Time;durP1;ratioP1;P1;durP2;ratioP2;P2;SDS_P1;SDS_P2;PMS_P1;PMS_P2;Temp;Humidity;BMP_temperature;BMP_pressure;BME280_temperature;BME280_humidity;BME280_pressure;Samples;Min_cycle;Max_cycle;Signal;HPM_P1;HPM_P2
2022/05/08 03:02:09;;;;;;;2.28;2.08;;;22.60;47.60;;;;;;5145905;22;45742;-64
2022/05/08 03:04:35;;;;;;;2.75;2.42;;;22.60;47.70;;;;;;4871357;28;45661;-64
2022/05/08 03:07:03;;;;;;;2.55;2.35;;;22.60;47.70;;;;;;4890735;28;45058;-65
2022/05/08 03:09:29;;;;;;;2.63;2.40;;;22.60;47.60;;;;;;4912741;28;45671;-65
2022/05/08 03:11:54;;;;;;;2.25;2.05;;;22.60;47.60;;;;;;4908014;28;47128;-64
2022/05/08 03:14:20;;;;;;;3.67;2.35;;;22.60;47.70;;;;;;4908300;28;45259;-64
2022/05/08 03:16:47;;;;;;;3.53;2.40;;;22.50;47.60;;;;;;4892327;28;46554;-65
2022/05/08 03:19:13;;;;;;;2.58;2.38;;;22.60;47.80;;;;;;4910249;28;45954;-65
2022/05/08 03:21:40;;;;;;;2.55;2.35;;;22.50;47.70;;;;;;4909987;28;46830;-65
2022/05/08 03:24:07;;;;;;;2.70;2.33;;;22.50;47.70;;;;;;4898408;28;44779;-65
2022/05/08 03:26:33;;;;;;;2.50;2.22;;;22.50;47.60;;;;;;4891415;28;45384;-64
2022/05/08 03:28:59;;;;;;;2.05;1.95;;;22.50;47.60;;;;;;4911247;28;45607;-64
2022/05/08 03:31:25;;;;;;;2.42;2.22;;;22.50;47.60;;;;;;4907529;28;45760;-65
2022/05/08 03:33:50;;;;;;;2.50;2.15;;;22.50;47.60;;;;;;4891435;28;45737;-65
2022/05/08 03:36:16;;;;;;;2.70;2.40;;;22.50;47.60;;;;;;4927144;28;46322;-65
2022/05/08 03:38:43;;;;;;;3.42;2.53;;;22.50;47.70;;;;;;4923925;28;45357;-64
2022/05/08 03:41:08;;;;;;;2.92;2.33;;;22.50;47.70;;;;;;4906486;28;45499;-64
2022/05/08 03:43:34;;;;;;;2.47;2.28;;;22.60;47.80;;;;;;4926862;28;46240;-65
2022/05/08 03:46:00;;;;;;;2.35;2.15;;;22.50;47.70;;;;;;4907645;28;45265;-64
2022/05/08 03:48:26;;;;;;;2.95;2.35;;;22.50;47.60;;;;;;4910869;28;45394;-65
2022/05/08 03:50:51;;;;;;;2.85;2.58;;;22.50;47.60;;;;;;4905342;28;45282;-64
2022/05/08 03:53:17;;;;;;;1.88;1.77;;;22.50;47.60;;;;;;4928828;28;45173;-64
2022/05/08 03:55:42;;;;;;;2.05;1.95;;;22.50;47.70;;;;;;4926772;28;45446;-64
2022/05/08 03:58:08;;;;;;;3.15;2.50;;;22.50;48.30;;;;;;4895684;28;45429;-65
2022/05/08 04:00:34;;;;;;;2.72;2.53;;;22.50;47.70;;;;;;4924309;28;45683;-65
2022/05/08 04:03:00;;;;;;;2.33;2.13;;;22.50;47.70;;;;;;4927056;28;44849;-65
2022/05/08 04:05:26;;;;;;;2.55;2.35;;;22.50;47.70;;;;;;4908488;28;45459;-65
2022/05/08 04:07:52;;;;;;;2.30;2.10;;;22.50;47.70;;;;;;4925771;28;45798;-65
2022/05/08 04:10:17;;;;;;;2.85;2.30;;;22.50;47.70;;;;;;4895389;28;46718;-64
2022/05/08 04:12:43;;;;;;;2.30;2.10;;;22.50;47.80;;;;;;4914957;28;46199;-65
2022/05/08 04:17:54;;;;;;;2.47;2.25;;;22.50;47.70;;;;;;4916593;28;45683;-65
2022/05/08 04:20:19;;;;;;;2.53;2.20;;;22.40;47.70;;;;;;4927033;28;45358;-66
2022/05/08 04:25:29;;;;;;;2.42;2.13;;;22.40;47.70;;;;;;4930690;28;44776;-66
2022/05/08 04:27:55;;;;;;;2.53;2.15;;;22.40;47.70;;;;;;4911792;28;45851;-66
2022/05/08 04:30:20;;;;;;;3.13;2.47;;;22.50;47.70;;;;;;4909640;28;46209;-65
2022/05/08 04:32:46;;;;;;;2.63;2.42;;;22.40;47.80;;;;;;4927797;28;45363;-66
2022/05/08 04:35:11;;;;;;;2.50;2.30;;;22.40;47.80;;;;;;4914231;28;46177;-65
2022/05/08 04:37:37;;;;;;;2.72;2.50;;;22.40;47.70;;;;;;4893262;28;45384;-66
2022/05/08 04:40:03;;;;;;;2.50;2.30;;;22.40;47.70;;;;;;4928541;28;46461;-66
2022/05/08 04:42:28;;;;;;;2.63;2.17;;;22.40;47.70;;;;;;4929651;28;45825;-66
2022/05/08 04:44:54;;;;;;;2.50;2.30;;;22.40;47.70;;;;;;4910717;28;46227;-65
2022/05/08 04:47:20;;;;;;;2.53;2.33;;;22.40;47.70;;;;;;4912660;28;45016;-65
2022/05/08 04:49:46;;;;;;;2.30;2.10;;;22.40;47.80;;;;;;4928337;28;45634;-65
2022/05/08 04:52:12;;;;;;;2.47;2.28;;;22.40;47.80;;;;;;4929255;28;44740;-64
2022/05/08 04:54:37;;;;;;;2.40;2.20;;;22.40;47.80;;;;;;4929669;28;45359;-66
2022/05/08 04:57:03;;;;;;;2.83;2.45;;;22.40;47.80;;;;;;4929494;28;44683;-66
2022/05/08 04:59:28;;;;;;;2.60;2.40;;;22.40;47.80;;;;;;4912743;28;46890;-66
2022/05/08 05:01:55;;;;;;;2.20;2.00;;;22.40;47.80;;;;;;4906801;28;45300;-66
2022/05/08 05:04:21;;;;;;;2.30;1.98;;;22.40;47.80;;;;;;4908484;28;44802;-66
2022/05/08 05:06:46;;;;;;;2.30;2.10;;;22.40;47.80;;;;;;4909009;28;45329;-66
2022/05/08 05:09:12;;;;;;;2.25;2.05;;;22.40;47.70;;;;;;4921760;28;45803;-66
2022/05/08 05:11:37;;;;;;;2.42;2.00;;;22.40;47.80;;;;;;4925631;28;44804;-66
2022/05/08 05:14:03;;;;;;;2.25;2.05;;;22.40;47.90;;;;;;4917955;28;45254;-65
2022/05/08 05:16:28;;;;;;;2.50;2.30;;;22.40;47.80;;;;;;4920379;28;46131;-66
2022/05/08 05:18:54;;;;;;;2.60;2.30;;;22.40;47.80;;;;;;4922378;28;45211;-65
2022/05/08 05:21:20;;;;;;;1.90;1.80;;;22.50;47.70;;;;;;4924540;28;45572;-66
2022/05/08 05:23:45;;;;;;;2.85;2.13;;;22.50;47.50;;;;;;4926033;28;45600;-66
2022/05/08 05:26:11;;;;;;;2.67;2.00;;;22.60;47.50;;;;;;4925785;28;46154;-66
2022/05/08 05:28:37;;;;;;;2.45;2.10;;;22.60;47.30;;;;;;4908566;28;46732;-65
2022/05/08 05:31:02;;;;;;;2.30;2.10;;;22.70;47.30;;;;;;4901611;28;45851;-65
2022/05/08 05:33:28;;;;;;;2.40;2.20;;;22.70;47.20;;;;;;4900309;28;46100;-66
2022/05/08 05:35:53;;;;;;;2.78;2.15;;;22.80;47.10;;;;;;4901693;28;45607;-65
2022/05/08 05:38:19;;;;;;;2.85;2.08;;;22.80;46.90;;;;;;4920598;28;46147;-65
2022/05/08 05:40:45;;;;;;;2.65;2.45;;;22.90;46.90;;;;;;4902806;28;45255;-66
2022/05/08 05:43:10;;;;;;;2.25;2.05;;;22.90;46.80;;;;;;4886553;28;45022;-65
2022/05/08 05:45:36;;;;;;;2.25;2.05;;;23.00;46.70;;;;;;4905126;28;45520;-65
2022/05/08 05:48:01;;;;;;;2.10;1.98;;;23.00;46.70;;;;;;4903309;28;46203;-65
2022/05/08 05:50:28;;;;;;;3.40;2.63;;;23.00;46.70;;;;;;4921584;28;45365;-65
2022/05/08 05:52:53;;;;;;;2.78;2.58;;;23.00;46.70;;;;;;4903405;28;45291;-65
2022/05/08 05:55:19;;;;;;;2.70;2.50;;;23.00;46.70;;;;;;4918855;28;45682;-65
2022/05/08 05:57:45;;;;;;;2.25;2.05;;;22.90;46.70;;;;;;4890186;28;46942;-66
2022/05/08 06:00:22;;;;;;;3.40;2.42;;;22.90;46.80;;;;;;4921486;28;45778;-66
2022/05/08 06:02:48;;;;;;;2.50;2.30;;;22.90;46.80;;;;;;4920578;28;45371;-65
2022/05/08 06:05:14;;;;;;;2.08;1.85;;;22.90;47.00;;;;;;4920374;28;45743;-65
2022/05/08 06:07:40;;;;;;;2.47;2.28;;;22.90;47.00;;;;;;4901305;28;45669;-66
2022/05/08 06:10:07;;;;;;;2.30;2.10;;;22.90;47.10;;;;;;4904240;28;45669;-66
2022/05/08 06:12:32;;;;;;;2.30;2.10;;;22.90;47.10;;;;;;4903315;28;45440;-65
2022/05/08 06:14:58;;;;;;;2.30;2.10;;;22.80;47.10;;;;;;4883432;28;45410;-64
2022/05/08 06:17:24;;;;;;;2.20;1.83;;;22.80;47.10;;;;;;4902532;28;45551;-65
2022/05/08 06:19:49;;;;;;;2.80;2.00;;;22.80;47.20;;;;;;4919004;28;45268;-66
2022/05/08 06:22:15;;;;;;;3.05;2.50;;;22.80;47.20;;;;;;4903582;28;45720;-65
2022/05/08 06:24:40;;;;;;;2.40;2.20;;;22.80;47.20;;;;;;4920739;28;45705;-65
2022/05/08 06:27:06;;;;;;;2.28;2.08;;;22.80;47.20;;;;;;4901480;28;45794;-65
2022/05/08 06:29:32;;;;;;;2.20;2.00;;;22.80;47.20;;;;;;4916934;28;45576;-65
2022/05/08 06:31:58;;;;;;;2.45;2.03;;;22.80;47.20;;;;;;4901765;28;45241;-66
2022/05/08 06:34:24;;;;;;;2.50;2.30;;;22.80;47.30;;;;;;4904689;28;45314;-65
2022/05/08 06:36:49;;;;;;;1.90;1.80;;;22.80;47.20;;;;;;4901115;28;46030;-65
2022/05/08 06:39:15;;;;;;;2.20;2.00;;;22.90;47.30;;;;;;4880734;28;46424;-65
2022/05/08 06:41:41;;;;;;;2.03;1.83;;;22.90;47.20;;;;;;4901297;28;45456;-66
2022/05/08 06:44:07;;;;;;;2.25;2.10;;;22.90;47.20;;;;;;4885127;28;45699;-66
2022/05/08 06:46:35;;;;;;;2.80;2.03;;;22.90;47.20;;;;;;4902371;28;46538;-66
2022/05/08 06:49:02;;;;;;;1.73;1.63;;;22.90;47.10;;;;;;4903404;28;44814;-65
2022/05/08 06:51:27;;;;;;;1.88;1.70;;;22.90;47.20;;;;;;4903113;28;45395;-65
2022/05/08 06:53:53;;;;;;;2.53;2.25;;;22.90;47.10;;;;;;4885180;28;45773;-65
2022/05/08 06:56:19;;;;;;;2.00;1.90;;;22.90;47.10;;;;;;4919608;28;45383;-65
2022/05/08 07:01:34;;;;;;;2.13;1.92;;;23.00;47.10;;;;;;4899639;28;45038;-65
2022/05/08 07:04:00;;;;;;;1.75;1.65;;;23.00;47.20;;;;;;4883696;28;45408;-65
2022/05/08 07:06:26;;;;;;;2.38;2.17;;;23.00;47.10;;;;;;4918751;28;46373;-66
2022/05/08 07:08:51;;;;;;;2.15;1.95;;;23.00;47.10;;;;;;4919257;28;45606;-64
2022/05/08 07:11:17;;;;;;;2.42;2.00;;;23.00;47.10;;;;;;4880102;28;45875;-65
2022/05/08 07:13:42;;;;;;;2.60;1.70;;;23.00;47.20;;;;;;4879027;28;45445;-66
2022/05/08 07:16:08;;;;;;;1.75;1.65;;;23.00;47.10;;;;;;4894379;28;45686;-65
2022/05/08 07:18:34;;;;;;;2.05;1.75;;;23.00;47.10;;;;;;4893691;28;45545;-65
2022/05/08 07:20:59;;;;;;;2.00;1.90;;;23.00;47.00;;;;;;4891423;28;45828;-64
2022/05/08 07:23:25;;;;;;;1.50;1.40;;;23.10;47.10;;;;;;4907854;28;46212;-66
2022/05/08 07:25:50;;;;;;;1.80;1.70;;;23.10;47.10;;;;;;4890580;28;46215;-66
2022/05/08 07:28:16;;;;;;;2.10;2.00;;;23.10;47.00;;;;;;4908534;28;45303;-65
2022/05/08 07:30:41;;;;;;;2.40;2.25;;;23.10;47.00;;;;;;4904315;28;45609;-63
2022/05/08 07:33:07;;;;;;;2.53;1.98;;;23.10;47.00;;;;;;4872653;28;46153;-62
2022/05/08 07:38:21;;;;;;;2.38;2.17;;;23.10;47.00;;;;;;4900922;28;45942;-62
2022/05/08 07:40:48;;;;;;;2.20;2.00;;;23.10;46.90;;;;;;4903533;28;46060;-64
2022/05/08 07:43:15;;;;;;;2.03;1.80;;;23.20;47.00;;;;;;4888942;28;45311;-65
2022/05/08 07:45:44;;;;;;;2.20;1.98;;;23.20;46.90;;;;;;4893999;28;46106;-64
2022/05/08 07:48:10;;;;;;;2.08;1.92;;;23.20;46.80;;;;;;4890493;28;45773;-64
2022/05/08 07:50:35;;;;;;;2.35;2.00;;;23.20;46.80;;;;;;4880279;28;45654;-64
2022/05/08 07:53:01;;;;;;;2.28;1.77;;;23.20;46.80;;;;;;4893053;28;45264;-64
2022/05/08 07:55:26;;;;;;;1.88;1.70;;;23.30;46.80;;;;;;4905491;28;45548;-63
2022/05/08 07:57:52;;;;;;;2.35;1.90;;;23.30;46.80;;;;;;4905531;28;45246;-64
2022/05/08 08:00:18;;;;;;;2.13;1.92;;;23.30;46.80;;;;;;4896424;28;45295;-64
2022/05/08 08:02:43;;;;;;;4.72;2.10;;;23.30;46.80;;;;;;4893437;28;45818;-64
2022/05/08 08:05:09;;;;;;;2.03;1.83;;;23.30;46.70;;;;;;4885836;28;46215;-64
2022/05/08 08:07:36;;;;;;;2.30;2.10;;;23.30;46.70;;;;;;4872214;28;46336;-65
2022/05/08 08:10:03;;;;;;;2.13;1.92;;;23.30;46.70;;;;;;4883221;28;45464;-65
2022/05/08 08:12:28;;;;;;;3.15;1.98;;;23.40;46.70;;;;;;4883648;28;45703;-64
2022/05/08 08:14:54;;;;;;;2.28;2.08;;;23.40;46.60;;;;;;4888348;28;47448;-65
2022/05/08 08:17:21;;;;;;;1.77;1.67;;;23.40;46.60;;;;;;4916723;28;46060;-64
2022/05/08 08:19:47;;;;;;;2.20;2.00;;;23.40;46.60;;;;;;4883817;28;45702;-65
2022/05/08 08:22:12;;;;;;;2.17;1.67;;;23.40;46.50;;;;;;4883972;28;45884;-64
2022/05/08 08:24:38;;;;;;;1.77;1.67;;;23.50;46.60;;;;;;4913777;28;46277;-64
2022/05/08 08:27:04;;;;;;;4.05;2.03;;;23.50;46.50;;;;;;4906696;28;45319;-65
2022/05/08 08:29:30;;;;;;;2.03;1.88;;;23.50;46.50;;;;;;4927024;28;46173;-65
2022/05/08 08:31:55;;;;;;;2.25;1.90;;;23.50;46.50;;;;;;4906783;28;45692;-64
2022/05/08 08:34:21;;;;;;;1.98;1.80;;;23.50;46.50;;;;;;4931952;28;45742;-65
2022/05/08 08:36:49;;;;;;;2.05;1.85;;;23.50;46.50;;;;;;4915026;28;45097;-65
2022/05/08 08:39:15;;;;;;;2.03;1.90;;;23.60;46.50;;;;;;4898404;28;45260;-64
2022/05/08 08:41:42;;;;;;;2.30;2.10;;;23.60;46.50;;;;;;4927422;28;44961;-64
2022/05/08 08:49:49;;;;;;;1.65;1.55;;;23.60;46.50;;;;;;4914890;28;45322;-65
2022/05/08 08:52:15;;;;;;;2.22;2.03;;;23.60;46.40;;;;;;4893050;28;45526;-65
2022/05/08 08:54:41;;;;;;;2.30;2.10;;;23.60;46.50;;;;;;4893731;28;45671;-64
2022/05/08 08:57:06;;;;;;;2.25;2.05;;;23.60;46.40;;;;;;4907853;28;45336;-64
2022/05/08 08:59:32;;;;;;;1.90;1.80;;;23.60;46.40;;;;;;4926120;28;45424;-65
2022/05/08 09:01:57;;;;;;;2.25;2.05;;;23.60;46.40;;;;;;4909556;28;45298;-65
2022/05/08 09:04:23;;;;;;;2.20;2.00;;;23.70;46.40;;;;;;4926366;28;46234;-65
2022/05/08 09:06:49;;;;;;;2.00;1.80;;;23.70;46.40;;;;;;4909365;28;45537;-65
2022/05/08 09:09:25;;;;;;;1.80;1.70;;;23.70;46.40;;;;;;4927076;28;45209;-65
2022/05/08 09:11:51;;;;;;;2.00;1.75;;;23.80;46.40;;;;;;4910834;28;46232;-66
2022/05/08 09:14:33;;;;;;;1.95;1.77;;;23.70;46.40;;;;;;4925012;28;45351;-65
2022/05/08 09:17:04;;;;;;;2.90;2.23;;;23.70;46.30;;;;;;4892363;28;45480;-65
2022/05/08 09:19:40;;;;;;;2.13;1.92;;;23.70;46.40;;;;;;4906337;28;45741;-66
2022/05/08 09:22:07;;;;;;;2.20;2.00;;;23.80;46.40;;;;;;4893983;28;46584;-65
2022/05/08 09:24:33;;;;;;;2.33;1.73;;;23.80;46.40;;;;;;4894721;28;47267;-64
2022/05/08 09:27:28;;;;;;;2.30;1.70;;;23.80;46.40;;;;;;4911539;28;45588;-65
2022/05/08 09:30:06;;;;;;;1.77;1.67;;;23.80;46.80;;;;;;4898221;28;46191;-64
2022/05/08 09:32:41;;;;;;;1.60;1.50;;;23.80;46.20;;;;;;4889723;28;46178;-64
2022/05/08 09:35:07;;;;;;;3.20;2.22;;;23.80;46.30;;;;;;4906157;28;45333;-66
2022/05/08 09:37:32;;;;;;;1.83;1.73;;;23.80;46.30;;;;;;4907240;28;46437;-66
2022/05/08 09:40:28;;;;;;;2.25;2.00;;;23.80;46.40;;;;;;4905340;28;46208;-64
2022/05/08 09:42:54;;;;;;;1.73;1.63;;;23.80;46.30;;;;;;4911792;28;46232;-65
2022/05/08 09:45:19;;;;;;;1.58;1.48;;;23.80;46.40;;;;;;4909435;28;45600;-64
2022/05/08 09:47:46;;;;;;;1.90;1.80;;;23.80;46.40;;;;;;4923625;28;45173;-65
2022/05/08 09:50:12;;;;;;;1.73;1.63;;;23.80;46.40;;;;;;4926043;28;45344;-64
2022/05/08 09:52:39;;;;;;;1.80;1.70;;;23.80;46.40;;;;;;4876926;28;45765;-64
2022/05/08 09:55:09;;;;;;;2.15;1.98;;;23.80;46.40;;;;;;4893089;28;45755;-63
2022/05/08 09:57:35;;;;;;;2.33;2.13;;;23.90;46.40;;;;;;4897822;28;46290;-64
2022/05/08 10:00:01;;;;;;;2.00;1.80;;;23.90;46.40;;;;;;4888422;28;46241;-65
2022/05/08 10:02:26;;;;;;;1.90;1.80;;;23.90;46.40;;;;;;4905839;28;45719;-65
2022/05/08 10:04:53;;;;;;;1.90;1.80;;;23.90;46.40;;;;;;4894412;28;47112;-66
2022/05/08 10:07:19;;;;;;;1.58;1.48;;;23.90;46.50;;;;;;4906195;28;47171;-66
2022/05/08 10:15:18;;;;;;;1.98;1.70;;;23.90;46.40;;;;;;4892419;28;46584;-65
2022/05/08 10:17:43;;;;;;;1.85;1.75;;;23.90;46.30;;;;;;4912117;28;45378;-66
2022/05/08 10:20:09;;;;;;;2.42;1.88;;;23.90;46.30;;;;;;4906650;28;46198;-65
2022/05/08 10:22:48;;;;;;;1.60;1.50;;;23.90;46.30;;;;;;4892861;28;45560;-65
2022/05/08 10:25:17;;;;;;;1.70;1.60;;;24.00;46.50;;;;;;4911274;28;46280;-65
2022/05/08 10:28:03;;;;;;;1.85;1.75;;;24.00;46.30;;;;;;4909734;28;45076;-63
2022/05/08 10:30:29;;;;;;;1.80;1.70;;;24.00;46.10;;;;;;4902766;28;44807;-64
2022/05/08 10:32:54;;;;;;;2.80;1.70;;;24.00;46.30;;;;;;4875199;28;46292;-65
2022/05/08 10:35:22;;;;;;;2.40;1.70;;;24.00;46.30;;;;;;4925264;28;45527;-63
2022/05/08 10:37:51;;;;;;;1.58;1.48;;;24.10;46.30;;;;;;4906833;28;45691;-65
2022/05/08 10:40:22;;;;;;;2.30;1.83;;;24.00;46.30;;;;;;4921482;28;45611;-64
2022/05/08 10:42:58;;;;;;;1.67;1.58;;;24.10;46.30;;;;;;4905896;28;45369;-64
2022/05/08 10:45:33;;;;;;;1.92;1.73;;;24.10;46.30;;;;;;4921179;28;45602;-64
2022/05/08 10:48:11;;;;;;;1.98;1.63;;;24.10;46.80;;;;;;4921759;28;45637;-64
2022/05/08 10:50:53;;;;;;;2.15;2.05;;;24.10;46.30;;;;;;4921919;28;45497;-65
2022/05/08 10:53:22;;;;;;;1.90;1.73;;;24.10;46.30;;;;;;4874548;28;45644;-64
2022/05/08 10:55:48;;;;;;;1.83;1.70;;;24.10;46.30;;;;;;4908118;28;46383;-64
2022/05/08 10:58:14;;;;;;;1.75;1.65;;;24.10;46.40;;;;;;4890450;28;46212;-64
2022/05/08 11:00:39;;;;;;;1.70;1.60;;;24.10;46.40;;;;;;4895652;28;45690;-66
2022/05/08 11:03:05;;;;;;;2.25;1.60;;;24.10;46.40;;;;;;4925580;28;46532;-66
2022/05/08 11:05:36;;;;;;;2.00;1.90;;;24.10;46.40;;;;;;4927641;28;46893;-66
2022/05/08 11:08:03;;;;;;;1.70;1.58;;;24.10;46.40;;;;;;4896352;28;45504;-66
2022/05/08 11:10:29;;;;;;;1.60;1.50;;;24.10;46.40;;;;;;4926879;28;45342;-66
2022/05/08 11:13:05;;;;;;;1.85;1.75;;;24.10;46.40;;;;;;4929880;28;45654;-65
2022/05/08 11:15:31;;;;;;;2.15;1.77;;;24.10;46.40;;;;;;4895747;28;45414;-67
2022/05/08 11:18:12;;;;;;;1.90;1.75;;;24.10;46.40;;;;;;4925919;28;45326;-67
2022/05/08 11:20:38;;;;;;;1.85;1.75;;;24.10;46.30;;;;;;4909505;28;45546;-66
2022/05/08 11:23:04;;;;;;;2.17;1.90;;;24.10;46.40;;;;;;4911686;28;45620;-67
2022/05/08 11:25:33;;;;;;;1.85;1.55;;;24.10;46.40;;;;;;4889933;28;46420;-65
2022/05/08 11:27:59;;;;;;;2.03;1.83;;;24.10;46.40;;;;;;4893012;28;46133;-65
2022/05/08 11:30:38;;;;;;;2.17;1.67;;;24.10;46.30;;;;;;4857446;28;45366;-65
2022/05/08 11:36:07;;;;;;;1.60;1.50;;;24.10;46.30;;;;;;4906383;28;45948;-63
2022/05/08 11:38:42;;;;;;;1.75;1.65;;;24.10;46.40;;;;;;4908215;28;45346;-64
2022/05/08 11:41:14;;;;;;;1.98;1.83;;;24.10;46.30;;;;;;4921009;28;45336;-64
2022/05/08 11:43:44;;;;;;;2.42;2.22;;;24.10;46.30;;;;;;4923521;28;45315;-64
2022/05/08 11:46:15;;;;;;;1.65;1.55;;;24.10;46.30;;;;;;4906418;28;46563;-64
2022/05/08 11:48:44;;;;;;;2.17;1.90;;;24.10;46.30;;;;;;4908487;28;45309;-64
2022/05/08 11:51:13;;;;;;;1.70;1.60;;;24.10;46.30;;;;;;4889470;28;45243;-64
2022/05/08 11:53:52;;;;;;;1.73;1.63;;;24.10;46.30;;;;;;4907036;28;45643;-65
2022/05/08 11:56:32;;;;;;;1.70;1.60;;;24.10;46.30;;;;;;4918974;28;45858;-65
2022/05/08 11:58:58;;;;;;;1.95;1.85;;;24.10;46.30;;;;;;4899538;28;45722;-64
2022/05/08 12:01:28;;;;;;;1.65;1.55;;;24.10;46.40;;;;;;4875936;28;45816;-65
2022/05/08 12:03:53;;;;;;;1.92;1.75;;;24.10;46.30;;;;;;4913826;28;45240;-64
2022/05/08 12:06:19;;;;;;;2.10;1.90;;;24.10;46.30;;;;;;4895910;28;46318;-63
2022/05/08 12:08:45;;;;;;;1.80;1.58;;;24.10;46.30;;;;;;4897803;28;46193;-65
2022/05/08 12:11:27;;;;;;;1.75;1.35;;;24.10;46.30;;;;;;4914495;28;46282;-64
2022/05/08 12:14:03;;;;;;;1.70;1.60;;;24.20;46.30;;;;;;4913957;28;45618;-65
2022/05/08 12:16:31;;;;;;;1.55;1.45;;;24.10;46.30;;;;;;4881916;28;46672;-65
2022/05/08 12:19:15;;;;;;;1.52;1.33;;;24.20;46.40;;;;;;4893254;28;45752;-65
2022/05/08 12:21:50;;;;;;;1.58;1.48;;;24.20;46.30;;;;;;4880199;28;44714;-65
2022/05/08 12:24:19;;;;;;;1.83;1.73;;;24.20;46.30;;;;;;4911944;28;45828;-65
2022/05/08 12:26:45;;;;;;;2.47;1.70;;;24.10;46.30;;;;;;4879814;28;46248;-65
2022/05/08 12:29:18;;;;;;;1.83;1.73;;;24.20;46.40;;;;;;4912978;28;45225;-65
2022/05/08 12:31:44;;;;;;;2.20;1.73;;;24.20;46.40;;;;;;4901151;28;45752;-65
2022/05/08 12:34:11;;;;;;;1.73;1.63;;;24.20;46.40;;;;;;4913400;28;46194;-65
2022/05/08 12:36:39;;;;;;;1.83;1.73;;;24.20;46.40;;;;;;4930277;28;45182;-65
2022/05/08 12:39:05;;;;;;;1.65;1.55;;;24.20;46.40;;;;;;4925722;28;44809;-63
2022/05/08 12:41:33;;;;;;;2.90;1.50;;;24.20;46.40;;;;;;4897292;28;45700;-67
2022/05/08 12:44:01;;;;;;;1.88;1.73;;;24.20;46.40;;;;;;4927802;28;45593;-65
2022/05/08 12:46:27;;;;;;;1.77;1.67;;;24.20;46.40;;;;;;4930016;28;46266;-65
2022/05/08 12:48:53;;;;;;;1.50;1.40;;;24.20;46.40;;;;;;4913447;28;44916;-64
2022/05/08 12:51:19;;;;;;;1.70;1.60;;;24.20;46.40;;;;;;4881194;28;44830;-65
2022/05/08 12:53:44;;;;;;;1.60;1.50;;;24.20;46.40;;;;;;4929308;28;45985;-63
2022/05/08 12:56:10;;;;;;;2.25;1.65;;;24.20;46.40;;;;;;4913102;28;45453;-65
2022/05/08 13:01:20;;;;;;;1.67;1.55;;;24.20;46.40;;;;;;4926326;28;46398;-65
2022/05/08 13:03:45;;;;;;;2.17;1.92;;;24.20;46.40;;;;;;4910579;28;44788;-64
2022/05/08 13:06:11;;;;;;;1.63;1.52;;;24.20;46.40;;;;;;4933945;28;45473;-65
2022/05/08 13:08:36;;;;;;;1.63;1.52;;;24.20;46.40;;;;;;4914879;28;45908;-66
2022/05/08 13:11:02;;;;;;;1.60;1.50;;;24.20;46.40;;;;;;4912873;28;45500;-65
2022/05/08 13:13:31;;;;;;;1.75;1.60;;;24.20;46.40;;;;;;4913404;28;44976;-65
2022/05/08 13:15:57;;;;;;;2.10;1.90;;;24.20;46.40;;;;;;4914026;28;46143;-64
2022/05/08 13:18:23;;;;;;;1.63;1.52;;;24.20;46.40;;;;;;4911140;28;45647;-65
2022/05/08 13:20:49;;;;;;;1.95;1.75;;;24.20;46.40;;;;;;4912510;28;45852;-63
2022/05/08 13:23:16;;;;;;;2.13;1.92;;;24.20;46.40;;;;;;4911028;28;46185;-65
2022/05/08 13:25:41;;;;;;;1.85;1.50;;;24.20;46.40;;;;;;4928121;28;46231;-66
2022/05/08 13:28:07;;;;;;;1.95;1.85;;;24.20;46.40;;;;;;4910857;28;45621;-65
2022/05/08 13:30:33;;;;;;;1.65;1.55;;;24.20;46.40;;;;;;4894281;28;45259;-66
2022/05/08 13:32:59;;;;;;;1.70;1.60;;;24.20;46.40;;;;;;4912538;28;45130;-65
2022/05/08 13:35:24;;;;;;;1.70;1.60;;;24.20;46.40;;;;;;4910833;28;46210;-66
2022/05/08 13:37:50;;;;;;;1.88;1.77;;;24.20;46.40;;;;;;4909847;28;45346;-65
2022/05/08 13:40:16;;;;;;;3.47;1.70;;;24.20;46.40;;;;;;4930786;28;45288;-65
2022/05/08 13:42:41;;;;;;;1.67;1.58;;;24.20;47.00;;;;;;4909097;28;45640;-65
2022/05/08 13:45:07;;;;;;;2.08;1.77;;;24.20;46.40;;;;;;4916258;28;47284;-65
2022/05/08 13:47:33;;;;;;;1.83;1.70;;;24.20;46.40;;;;;;4894380;28;45298;-65
2022/05/08 13:50:01;;;;;;;2.22;1.60;;;24.20;46.40;;;;;;4930540;28;45577;-66
2022/05/08 13:52:28;;;;;;;1.70;1.60;;;24.20;46.40;;;;;;4895532;28;45009;-66
2022/05/08 13:54:53;;;;;;;1.92;1.58;;;24.20;46.40;;;;;;4931303;28;45512;-65
2022/05/08 13:57:19;;;;;;;1.70;1.60;;;24.20;47.00;;;;;;4927043;28;45752;-66
2022/05/08 13:59:44;;;;;;;1.80;1.70;;;24.20;46.40;;;;;;4894588;28;45202;-66
2022/05/08 14:02:13;;;;;;;1.80;1.70;;;24.20;46.40;;;;;;4906287;28;45324;-65
2022/05/08 14:04:43;;;;;;;1.70;1.60;;;24.20;46.40;;;;;;4925461;28;46280;-66
2022/05/08 14:07:09;;;;;;;1.95;1.77;;;24.20;46.30;;;;;;4926189;28;45821;-66
2022/05/08 14:09:35;;;;;;;2.08;1.88;;;24.20;46.40;;;;;;4919988;28;45254;-64
2022/05/08 14:12:01;;;;;;;1.48;1.38;;;24.20;46.40;;;;;;4905261;28;45152;-65
2022/05/08 14:14:27;;;;;;;2.13;1.58;;;24.20;46.40;;;;;;4907489;28;46871;-66
2022/05/08 14:16:52;;;;;;;2.00;1.77;;;24.20;46.40;;;;;;4915694;28;45067;-65
2022/05/08 14:19:18;;;;;;;1.67;1.58;;;24.20;46.40;;;;;;4911751;28;45352;-65
2022/05/08 14:21:44;;;;;;;2.08;1.90;;;24.20;46.40;;;;;;4931893;28;45196;-65
2022/05/08 14:24:09;;;;;;;1.70;1.60;;;24.20;46.40;;;;;;4904204;28;45257;-65
2022/05/08 14:26:35;;;;;;;2.00;1.80;;;24.20;46.40;;;;;;4912505;28;45136;-65
2022/05/08 14:29:00;;;;;;;1.48;1.38;;;24.20;46.40;;;;;;4913698;28;45268;-65
2022/05/08 14:37:03;;;;;;;1.88;1.67;;;24.20;46.50;;;;;;4914443;28;45263;-65
2022/05/08 14:39:29;;;;;;;1.50;1.40;;;24.20;46.50;;;;;;4907657;28;45294;-65
2022/05/08 14:41:55;;;;;;;1.70;1.60;;;24.20;46.50;;;;;;4896475;28;48139;-66
2022/05/08 14:44:20;;;;;;;2.00;1.70;;;24.20;46.50;;;;;;4896031;28;46966;-66
2022/05/08 14:46:46;;;;;;;2.60;1.67;;;24.20;46.50;;;;;;4898820;28;44781;-66
2022/05/08 14:49:11;;;;;;;1.67;1.58;;;24.20;46.50;;;;;;4893932;28;45646;-66
2022/05/08 14:51:37;;;;;;;1.80;1.70;;;24.20;46.50;;;;;;4913402;28;44917;-66
2022/05/08 14:54:03;;;;;;;2.75;2.00;;;24.20;46.50;;;;;;4882243;28;45190;-65
2022/05/08 14:56:29;;;;;;;2.67;1.55;;;24.20;46.50;;;;;;4900051;28;45922;-66
2022/05/08 14:58:55;;;;;;;1.60;1.23;;;24.20;46.60;;;;;;4896253;28;45399;-64
2022/05/08 15:01:20;;;;;;;2.08;1.70;;;24.20;46.60;;;;;;4895764;28;45069;-64
2022/05/08 15:03:47;;;;;;;1.90;1.70;;;24.20;46.50;;;;;;4893971;28;45033;-65
2022/05/08 15:06:12;;;;;;;2.55;1.67;;;24.20;46.50;;;;;;4888811;28;45665;-64
2022/05/08 15:08:38;;;;;;;1.85;1.75;;;24.20;46.50;;;;;;4890433;28;46126;-64
2022/05/08 15:11:04;;;;;;;1.70;1.60;;;24.20;46.50;;;;;;4905414;28;44905;-65
2022/05/08 15:13:29;;;;;;;2.15;1.40;;;24.20;46.60;;;;;;4891028;28;45475;-66
2022/05/08 15:15:55;;;;;;;1.80;1.50;;;24.20;46.60;;;;;;4874588;28;45380;-65
2022/05/08 15:21:05;;;;;;;2.40;1.85;;;24.20;46.70;;;;;;4919005;28;45302;-64
2022/05/08 15:23:31;;;;;;;1.65;1.25;;;24.20;46.70;;;;;;4908575;28;46230;-65
2022/05/08 15:25:57;;;;;;;2.17;1.90;;;24.20;46.60;;;;;;4910631;28;44800;-66
2022/05/08 15:28:23;;;;;;;1.60;1.50;;;24.20;46.60;;;;;;4893689;28;45510;-65
2022/05/08 15:30:49;;;;;;;1.50;1.40;;;24.20;46.60;;;;;;4885694;28;45411;-65
2022/05/08 15:33:15;;;;;;;1.60;1.50;;;24.20;46.60;;;;;;4905524;28;45234;-64
2022/05/08 15:35:41;;;;;;;1.73;1.52;;;24.20;46.60;;;;;;4874518;28;45629;-65
2022/05/08 15:38:06;;;;;;;1.83;1.70;;;24.20;46.60;;;;;;4890122;28;45060;-65
2022/05/08 15:40:32;;;;;;;1.63;1.52;;;24.20;46.50;;;;;;4909301;28;45746;-65
2022/05/08 15:42:58;;;;;;;1.83;1.65;;;24.30;46.50;;;;;;4891625;28;45528;-65
2022/05/08 15:45:24;;;;;;;1.50;1.40;;;24.20;46.50;;;;;;4907226;28;46217;-64
2022/05/08 15:47:50;;;;;;;1.95;1.75;;;24.30;46.40;;;;;;4891220;28;45365;-65
2022/05/08 15:50:15;;;;;;;1.58;1.48;;;24.20;46.40;;;;;;4909932;28;45613;-65
2022/05/08 15:52:41;;;;;;;1.80;1.70;;;24.30;46.40;;;;;;4886271;28;46391;-66
2022/05/08 15:55:07;;;;;;;2.03;1.90;;;24.20;46.40;;;;;;4881582;28;45093;-66
2022/05/08 15:57:34;;;;;;;1.80;1.70;;;24.20;46.40;;;;;;4862479;28;46094;-65
2022/05/08 16:00:00;;;;;;;1.95;1.60;;;24.30;46.40;;;;;;4888117;28;45496;-65
2022/05/08 16:02:26;;;;;;;1.95;1.75;;;24.20;46.50;;;;;;4886010;28;46906;-66
2022/05/08 16:04:53;;;;;;;1.70;1.60;;;24.20;46.50;;;;;;4890340;28;45573;-64
2022/05/08 16:07:19;;;;;;;1.50;1.40;;;24.30;46.60;;;;;;4875262;28;45330;-65
2022/05/08 16:09:48;;;;;;;1.40;1.30;;;24.20;46.50;;;;;;4907861;28;45158;-65
2022/05/08 16:12:14;;;;;;;1.88;1.40;;;24.20;46.60;;;;;;4890417;28;46135;-65
2022/05/08 16:23:11;;;;;;;1.55;1.42;;;24.20;46.50;;;;;;4887112;28;46380;-65
2022/05/08 16:25:38;;;;;;;2.13;1.85;;;24.20;46.60;;;;;;4909832;28;45176;-66
2022/05/08 16:28:04;;;;;;;1.90;1.75;;;24.20;46.60;;;;;;4885770;28;45432;-65
2022/05/08 16:30:30;;;;;;;1.80;1.70;;;24.20;46.70;;;;;;4888369;28;45808;-64
2022/05/08 16:32:56;;;;;;;4.43;1.90;;;24.20;46.70;;;;;;4890776;28;45987;-65